createdAt,value
2023-05-10T00:00:09.440Z,1011.77
2023-05-10T00:01:10.307Z,1011.79
2023-05-10T00:02:11.233Z,1011.81
2023-05-10T00:03:12.186Z,1011.78
2023-05-10T00:04:13.128Z,1011.78
2023-05-10T00:05:13.982Z,1011.77
2023-05-10T00:06:14.846Z,1011.79
2023-05-10T00:07:15.724Z,1011.81
2023-05-10T00:08:16.612Z,1011.82
2023-05-10T00:09:17.515Z,1011.81
2023-05-10T00:10:18.602Z,1011.80
2023-05-10T00:11:20.923Z,1011.80
2023-05-10T00:12:20.067Z,1011.80
2023-05-10T00:13:20.987Z,1011.81
2023-05-10T00:14:21.838Z,1011.81
2023-05-10T00:15:22.759Z,1011.84
2023-05-10T00:16:23.709Z,1011.82
2023-05-10T00:17:24.589Z,1011.82
2023-05-10T00:18:25.417Z,1011.83
2023-05-10T00:19:26.299Z,1011.83
2023-05-10T00:20:27.182Z,1011.83
2023-05-10T00:21:28.062Z,1011.82
2023-05-10T00:22:28.957Z,1011.82
2023-05-10T00:23:29.845Z,1011.81
2023-05-10T00:24:30.820Z,1011.81
2023-05-10T00:25:31.640Z,1011.79
2023-05-10T00:26:32.531Z,1011.77
2023-05-10T00:27:33.413Z,1011.77
2023-05-10T00:28:34.290Z,1011.76
2023-05-10T00:29:35.189Z,1011.75
2023-05-10T00:30:36.055Z,1011.75
2023-05-10T00:31:36.987Z,1011.75
2023-05-10T00:32:37.894Z,1011.72
2023-05-10T00:33:38.717Z,1011.73
2023-05-10T00:34:39.601Z,1011.71
2023-05-10T00:35:40.516Z,1011.71
2023-05-10T00:36:41.384Z,1011.69
2023-05-10T00:37:42.266Z,1011.69
2023-05-10T00:38:43.145Z,1011.67
2023-05-10T00:39:44.048Z,1011.66
2023-05-10T00:40:44.922Z,1011.66
2023-05-10T00:41:45.813Z,1011.67
2023-05-10T00:42:46.693Z,1011.65
2023-05-10T00:43:47.575Z,1011.66
2023-05-10T00:44:48.455Z,1011.66
2023-05-10T00:45:49.367Z,1011.66
2023-05-10T00:46:50.230Z,1011.66
2023-05-10T00:47:51.171Z,1011.66
2023-05-10T00:48:52.005Z,1011.66
2023-05-10T00:49:52.908Z,1011.64
2023-05-10T00:50:53.779Z,1011.62
2023-05-10T00:51:54.663Z,1011.62
2023-05-10T00:52:55.538Z,1011.61
2023-05-10T00:53:56.414Z,1011.59
2023-05-10T00:54:57.314Z,1011.59
2023-05-10T00:55:58.177Z,1011.61
2023-05-10T00:56:59.060Z,1011.61
2023-05-10T00:57:59.939Z,1011.60
2023-05-10T00:59:00.819Z,1011.60
2023-05-10T01:00:01.713Z,1011.58
2023-05-10T01:01:02.643Z,1011.58
2023-05-10T01:02:03.549Z,1011.57
2023-05-10T01:03:04.528Z,1011.55
2023-05-10T01:04:04.922Z,1011.56
2023-05-10T01:05:05.796Z,1011.53
2023-05-10T01:06:06.671Z,1011.53
2023-05-10T01:07:07.542Z,1011.50
2023-05-10T01:08:08.418Z,1011.49
2023-05-10T01:09:09.359Z,1011.49
2023-05-10T01:10:10.239Z,1011.48
2023-05-10T01:11:11.089Z,1011.49
2023-05-10T01:12:11.990Z,1011.47
2023-05-10T01:13:12.882Z,1011.45
2023-05-10T01:14:13.726Z,1011.45
2023-05-10T01:15:14.595Z,1011.46
2023-05-10T01:16:15.499Z,1011.45
2023-05-10T01:17:16.377Z,1011.46
2023-05-10T01:18:17.269Z,1011.45
2023-05-10T01:19:18.173Z,1011.45
2023-05-10T01:20:19.299Z,1011.43
2023-05-10T01:21:19.827Z,1011.44
2023-05-10T01:22:20.679Z,1011.43
2023-05-10T01:23:21.558Z,1011.42
2023-05-10T01:24:22.464Z,1011.43
2023-05-10T01:25:23.346Z,1011.41
2023-05-10T01:26:24.191Z,1011.41
2023-05-10T01:27:25.074Z,1011.42
2023-05-10T01:28:25.957Z,1011.41
2023-05-10T01:29:26.844Z,1011.39
2023-05-10T01:30:27.931Z,1011.39
2023-05-10T01:31:28.515Z,1011.38
2023-05-10T01:32:29.428Z,1011.35
2023-05-10T01:33:30.299Z,1011.35
2023-05-10T01:34:31.166Z,1011.36
2023-05-10T01:35:32.036Z,1011.33
2023-05-10T01:36:32.937Z,1011.32
2023-05-10T01:37:33.830Z,1011.33
2023-05-10T01:38:34.708Z,1011.34
2023-05-10T01:39:35.569Z,1011.36
2023-05-10T01:40:36.468Z,1011.36
2023-05-10T01:41:37.328Z,1011.35
2023-05-10T01:42:38.211Z,1011.36
2023-05-10T01:43:39.092Z,1011.33
2023-05-10T01:44:39.971Z,1011.34
2023-05-10T01:45:40.852Z,1011.35
2023-05-10T01:46:41.793Z,1011.34
2023-05-10T01:47:42.718Z,1011.38
2023-05-10T01:48:43.566Z,1011.40
2023-05-10T01:49:44.461Z,1011.38
2023-05-10T01:50:45.340Z,1011.39
2023-05-10T01:51:46.215Z,1011.40
2023-05-10T01:52:47.095Z,1011.43
2023-05-10T01:53:47.988Z,1011.42
2023-05-10T01:54:48.856Z,1011.42
2023-05-10T01:55:49.782Z,1011.42
2023-05-10T01:56:50.628Z,1011.42
2023-05-10T01:57:51.499Z,1011.42
2023-05-10T01:58:52.378Z,1011.42
2023-05-10T01:59:53.264Z,1011.41
2023-05-10T02:00:54.218Z,1011.44
2023-05-10T02:01:55.045Z,1011.44
2023-05-10T02:02:55.938Z,1011.48
2023-05-10T02:03:56.820Z,1011.53
2023-05-10T02:04:57.683Z,1011.54
2023-05-10T02:05:58.570Z,1011.54
2023-05-10T02:06:59.459Z,1011.53
2023-05-10T02:08:00.331Z,1011.55
2023-05-10T02:09:01.211Z,1011.55
2023-05-10T02:10:02.083Z,1011.59
2023-05-10T02:11:02.981Z,1011.60
2023-05-10T02:12:03.855Z,1011.59
2023-05-10T02:13:04.763Z,1011.56
2023-05-10T02:14:05.671Z,1011.55
2023-05-10T02:15:06.544Z,1011.55
2023-05-10T02:16:07.496Z,1011.56
2023-05-10T02:17:08.355Z,1011.57
2023-05-10T02:18:09.277Z,1011.57
2023-05-10T02:19:10.127Z,1011.58
2023-05-10T02:20:11.009Z,1011.57
2023-05-10T02:21:11.926Z,1011.58
2023-05-10T02:22:12.811Z,1011.58
2023-05-10T02:23:13.715Z,1011.57
2023-05-10T02:24:14.598Z,1011.57
2023-05-10T02:25:15.505Z,1011.55
2023-05-10T02:26:16.415Z,1011.55
2023-05-10T02:27:17.289Z,1011.56
2023-05-10T02:28:18.163Z,1011.58
2023-05-10T02:29:19.036Z,1011.59
2023-05-10T02:30:19.939Z,1011.58
2023-05-10T02:31:20.864Z,1011.59
2023-05-10T02:32:21.289Z,1011.59
2023-05-10T02:33:22.181Z,1011.59
2023-05-10T02:34:22.971Z,1011.59
2023-05-10T02:35:23.852Z,1011.60
2023-05-10T02:36:24.722Z,1011.60
2023-05-10T02:37:25.635Z,1011.61
2023-05-10T02:38:26.537Z,1011.60
2023-05-10T02:39:27.423Z,1011.63
2023-05-10T02:40:29.006Z,1011.62
2023-05-10T02:41:28.904Z,1011.60
2023-05-10T02:42:29.762Z,1011.57
2023-05-10T02:43:30.644Z,1011.55
2023-05-10T02:44:31.525Z,1011.56
2023-05-10T02:45:32.399Z,1011.57
2023-05-10T02:46:33.328Z,1011.57
2023-05-10T02:47:34.225Z,1011.58
2023-05-10T02:48:35.059Z,1011.58
2023-05-10T02:49:35.967Z,1011.57
2023-05-10T02:50:36.822Z,1011.58
2023-05-10T02:51:37.725Z,1011.57
2023-05-10T02:52:38.580Z,1011.54
2023-05-10T02:53:39.455Z,1011.53
2023-05-10T02:54:40.339Z,1011.52
2023-05-10T02:55:41.243Z,1011.53
2023-05-10T02:56:42.143Z,1011.52
2023-05-10T02:57:43.006Z,1011.51
2023-05-10T02:58:43.885Z,1011.54
2023-05-10T02:59:44.784Z,1011.55
2023-05-10T03:00:45.686Z,1011.55
2023-05-10T03:01:46.592Z,1011.56
2023-05-10T03:02:47.510Z,1011.57
2023-05-10T03:03:48.336Z,1011.57
2023-05-10T03:04:49.227Z,1011.57
2023-05-10T03:05:50.106Z,1011.57
2023-05-10T03:06:50.989Z,1011.58
2023-05-10T03:07:51.938Z,1011.58
2023-05-10T03:08:52.772Z,1011.61
2023-05-10T03:09:53.655Z,1011.63
2023-05-10T03:10:54.543Z,1011.65
2023-05-10T03:11:55.444Z,1011.64
2023-05-10T03:12:56.339Z,1011.61
2023-05-10T03:13:57.206Z,1011.63
2023-05-10T03:14:58.088Z,1011.63
2023-05-10T03:15:59.026Z,1011.60
2023-05-10T03:16:59.872Z,1011.59
2023-05-10T03:18:00.817Z,1011.59
2023-05-10T03:19:01.666Z,1011.60
2023-05-10T03:20:02.582Z,1011.59
2023-05-10T03:21:03.440Z,1011.60
2023-05-10T03:22:04.324Z,1011.60
2023-05-10T03:23:05.209Z,1011.60
2023-05-10T03:24:06.094Z,1011.62
2023-05-10T03:25:06.997Z,1011.64
2023-05-10T03:26:07.873Z,1011.63
2023-05-10T03:27:08.765Z,1011.64
2023-05-10T03:28:09.622Z,1011.65
2023-05-10T03:29:10.516Z,1011.67
2023-05-10T03:30:11.410Z,1011.68
2023-05-10T03:31:12.381Z,1011.68
2023-05-10T03:32:13.244Z,1011.69
2023-05-10T03:33:14.130Z,1011.70
2023-05-10T03:34:15.002Z,1011.71
2023-05-10T03:35:15.862Z,1011.73
2023-05-10T03:36:16.731Z,1011.72
2023-05-10T03:37:17.570Z,1011.72
2023-05-10T03:38:18.387Z,1011.73
2023-05-10T03:39:19.307Z,1011.71
2023-05-10T03:40:20.253Z,1011.70
2023-05-10T03:41:21.122Z,1011.72
2023-05-10T03:42:22.046Z,1011.73
2023-05-10T03:43:22.923Z,1011.76
2023-05-10T03:44:23.795Z,1011.76
2023-05-10T03:45:24.705Z,1011.79
2023-05-10T03:46:25.633Z,1011.76
2023-05-10T03:47:26.419Z,1011.78
2023-05-10T03:48:27.263Z,1011.81
2023-05-10T03:49:28.098Z,1011.83
2023-05-10T03:50:28.913Z,1011.84
2023-05-10T03:51:29.793Z,1011.84
2023-05-10T03:52:30.663Z,1011.86
2023-05-10T03:53:31.472Z,1011.88
2023-05-10T03:54:32.320Z,1011.91
2023-05-10T03:55:33.139Z,1011.94
2023-05-10T03:56:33.962Z,1011.96
2023-05-10T03:57:34.820Z,1011.98
2023-05-10T03:58:35.628Z,1011.97
2023-05-10T03:59:36.463Z,1011.97
2023-05-10T04:00:37.291Z,1011.96
2023-05-10T04:01:38.179Z,1011.94
2023-05-10T04:02:39.375Z,1011.95
2023-05-10T04:03:39.810Z,1011.95
2023-05-10T04:04:40.589Z,1011.93
2023-05-10T04:05:41.418Z,1011.93
2023-05-10T04:06:42.296Z,1011.93
2023-05-10T04:07:43.128Z,1011.91
2023-05-10T04:08:43.972Z,1011.94
2023-05-10T04:09:44.787Z,1011.93
2023-05-10T04:10:45.616Z,1011.94
2023-05-10T04:11:46.447Z,1011.98
2023-05-10T04:12:47.329Z,1011.96
2023-05-10T04:13:48.102Z,1012.00
2023-05-10T04:14:48.937Z,1012.02
2023-05-10T04:15:49.770Z,1012.03
2023-05-10T04:16:50.664Z,1012.01
2023-05-10T04:17:51.472Z,1012.02
2023-05-10T04:18:52.268Z,1012.03
2023-05-10T04:19:53.095Z,1012.05
2023-05-10T04:20:53.946Z,1012.06
2023-05-10T04:21:54.771Z,1012.07
2023-05-10T04:22:55.587Z,1012.09
2023-05-10T04:23:56.408Z,1012.09
2023-05-10T04:24:57.286Z,1012.10
2023-05-10T04:25:58.106Z,1012.12
2023-05-10T04:26:58.957Z,1012.13
2023-05-10T04:27:59.785Z,1012.14
2023-05-10T04:29:00.613Z,1012.15
2023-05-10T04:30:01.440Z,1012.14
2023-05-10T04:31:02.354Z,1012.14
2023-05-10T04:32:03.134Z,1012.14
2023-05-10T04:33:04.004Z,1012.15
2023-05-10T04:34:04.818Z,1012.16
2023-05-10T04:35:05.679Z,1012.17
2023-05-10T04:36:06.482Z,1012.17
2023-05-10T04:37:07.308Z,1012.21
2023-05-10T04:38:08.142Z,1012.23
2023-05-10T04:39:08.991Z,1012.24
2023-05-10T04:40:09.809Z,1012.23
2023-05-10T04:41:10.644Z,1012.22
2023-05-10T04:42:11.469Z,1012.23
2023-05-10T04:43:12.314Z,1012.23
2023-05-10T04:44:13.129Z,1012.23
2023-05-10T04:45:13.995Z,1012.25
2023-05-10T04:46:14.852Z,1012.25
2023-05-10T04:47:15.654Z,1012.26
2023-05-10T04:48:16.517Z,1012.25
2023-05-10T04:49:17.464Z,1012.24
2023-05-10T04:50:18.416Z,1012.24
2023-05-10T04:51:18.802Z,1012.27
2023-05-10T04:52:19.635Z,1012.27
2023-05-10T04:53:20.457Z,1012.29
2023-05-10T04:54:21.285Z,1012.30
2023-05-10T04:55:22.123Z,1012.30
2023-05-10T04:56:22.945Z,1012.31
2023-05-10T04:57:23.794Z,1012.32
2023-05-10T04:58:24.725Z,1012.30
2023-05-10T04:59:25.490Z,1012.31
2023-05-10T05:00:26.318Z,1012.31
2023-05-10T05:01:27.212Z,1012.31
2023-05-10T05:02:28.119Z,1012.30
2023-05-10T05:03:29.024Z,1012.28
2023-05-10T05:04:29.865Z,1012.27
2023-05-10T05:05:30.690Z,1012.29
2023-05-10T05:06:31.519Z,1012.31
2023-05-10T05:07:32.357Z,1012.30
2023-05-10T05:08:33.198Z,1012.29
2023-05-10T05:09:34.030Z,1012.27
2023-05-10T05:10:34.858Z,1012.25
2023-05-10T05:11:35.711Z,1012.27
2023-05-10T05:12:36.548Z,1012.30
2023-05-10T05:13:37.390Z,1012.28
2023-05-10T05:14:38.187Z,1012.28
2023-05-10T05:15:39.016Z,1012.28
2023-05-10T05:16:39.871Z,1012.28
2023-05-10T05:17:40.705Z,1012.28
2023-05-10T05:18:41.506Z,1012.30
2023-05-10T05:19:42.337Z,1012.32
2023-05-10T05:20:43.174Z,1012.33
2023-05-10T05:21:44.021Z,1012.34
2023-05-10T05:22:44.825Z,1012.35
2023-05-10T05:23:45.652Z,1012.36
2023-05-10T05:24:46.471Z,1012.36
2023-05-10T05:25:47.312Z,1012.35
2023-05-10T05:26:48.140Z,1012.35
2023-05-10T05:27:48.973Z,1012.36
2023-05-10T05:28:49.856Z,1012.39
2023-05-10T05:29:50.633Z,1012.42
2023-05-10T05:30:51.476Z,1012.41
2023-05-10T05:31:54.771Z,1012.44
2023-05-10T05:32:53.219Z,1012.47
2023-05-10T05:33:54.008Z,1012.49
2023-05-10T05:34:54.860Z,1012.48
2023-05-10T05:35:55.665Z,1012.48
2023-05-10T05:36:56.490Z,1012.47
2023-05-10T05:37:57.306Z,1012.47
2023-05-10T05:38:58.137Z,1012.46
2023-05-10T05:39:58.960Z,1012.47
2023-05-10T05:40:59.815Z,1012.46
2023-05-10T05:42:00.618Z,1012.46
2023-05-10T05:43:01.476Z,1012.46
2023-05-10T05:44:02.341Z,1012.46
2023-05-10T05:45:03.115Z,1012.47
2023-05-10T05:46:03.990Z,1012.50
2023-05-10T05:47:04.798Z,1012.51
2023-05-10T05:48:05.646Z,1012.54
2023-05-10T05:49:06.474Z,1012.57
2023-05-10T05:50:07.306Z,1012.58
2023-05-10T05:51:08.129Z,1012.59
2023-05-10T05:52:08.953Z,1012.57
2023-05-10T05:53:09.793Z,1012.58
2023-05-10T05:54:10.625Z,1012.55
2023-05-10T05:55:11.450Z,1012.58
2023-05-10T05:56:12.266Z,1012.59
2023-05-10T05:57:13.095Z,1012.60
2023-05-10T05:58:13.928Z,1012.61
2023-05-10T05:59:14.810Z,1012.60
2023-05-10T06:00:15.604Z,1012.62
2023-05-10T06:01:16.450Z,1012.65
2023-05-10T06:02:17.296Z,1012.66
2023-05-10T06:03:18.261Z,1012.69
2023-05-10T06:04:19.115Z,1012.69
2023-05-10T06:05:19.931Z,1012.71
2023-05-10T06:06:20.743Z,1012.73
2023-05-10T06:07:21.570Z,1012.71
2023-05-10T06:08:22.393Z,1012.72
2023-05-10T06:09:23.223Z,1012.72
2023-05-10T06:10:24.042Z,1012.72
2023-05-10T06:11:24.868Z,1012.72
2023-05-10T06:12:25.708Z,1012.71
2023-05-10T06:13:26.602Z,1012.70
2023-05-10T06:14:27.573Z,1012.71
2023-05-10T06:15:28.348Z,1012.70
2023-05-10T06:16:29.186Z,1012.74
2023-05-10T06:17:30.033Z,1012.76
2023-05-10T06:18:30.826Z,1012.82
2023-05-10T06:19:31.661Z,1012.84
2023-05-10T06:20:32.601Z,1012.88
2023-05-10T06:21:33.470Z,1012.89
2023-05-10T06:22:34.286Z,1012.92
2023-05-10T06:23:35.121Z,1012.95
2023-05-10T06:24:36.115Z,1012.97
2023-05-10T06:25:36.890Z,1012.98
2023-05-10T06:26:37.733Z,1013.00
2023-05-10T06:27:38.552Z,1012.98
2023-05-10T06:28:39.427Z,1012.98
2023-05-10T06:29:40.256Z,1012.99
2023-05-10T06:30:41.040Z,1012.99
2023-05-10T06:31:41.933Z,1012.98
2023-05-10T06:32:42.741Z,1012.99
2023-05-10T06:33:43.578Z,1013.00
2023-05-10T06:34:44.392Z,1012.98
2023-05-10T06:35:45.220Z,1012.99
2023-05-10T06:36:46.063Z,1013.02
2023-05-10T06:37:46.888Z,1013.02
2023-05-10T06:38:47.707Z,1012.99
2023-05-10T06:39:48.548Z,1012.98
2023-05-10T06:40:49.368Z,1012.96
2023-05-10T06:41:50.205Z,1012.95
2023-05-10T06:42:51.009Z,1012.98
2023-05-10T06:43:51.840Z,1013.00
2023-05-10T06:44:52.912Z,1013.01
2023-05-10T06:45:53.212Z,1013.06
2023-05-10T06:46:54.002Z,1013.04
2023-05-10T06:47:54.859Z,1013.02
2023-05-10T06:48:55.662Z,1013.03
2023-05-10T06:49:56.493Z,1013.03
2023-05-10T06:50:57.350Z,1013.04
2023-05-10T06:51:58.193Z,1013.06
2023-05-10T06:52:59.033Z,1013.08
2023-05-10T06:53:59.842Z,1013.11
2023-05-10T06:55:00.685Z,1013.12
2023-05-10T06:56:01.504Z,1013.12
2023-05-10T06:57:03.906Z,1013.14
2023-05-10T06:58:03.040Z,1013.12
2023-05-10T06:59:03.925Z,1013.09
2023-05-10T07:00:04.804Z,1013.10
2023-05-10T07:01:05.636Z,1013.14
2023-05-10T07:02:06.449Z,1013.11
2023-05-10T07:03:07.318Z,1013.13
2023-05-10T07:04:08.171Z,1013.14
2023-05-10T07:05:08.983Z,1013.16
2023-05-10T07:06:15.630Z,1013.18
2023-05-10T07:07:11.527Z,1013.21
2023-05-10T07:08:11.366Z,1013.21
2023-05-10T07:09:12.204Z,1013.20
2023-05-10T07:10:13.058Z,1013.19
2023-05-10T07:11:13.854Z,1013.16
2023-05-10T07:12:15.828Z,1013.20
2023-05-10T07:13:15.542Z,1013.19
2023-05-10T07:14:16.377Z,1013.21
2023-05-10T07:15:17.528Z,1013.22
2023-05-10T07:16:18.051Z,1013.24
2023-05-10T07:17:18.980Z,1013.25
2023-05-10T07:18:19.813Z,1013.26
2023-05-10T07:19:20.627Z,1013.25
2023-05-10T07:20:21.447Z,1013.26
2023-05-10T07:21:22.343Z,1013.27
2023-05-10T07:22:23.133Z,1013.29
2023-05-10T07:23:23.958Z,1013.32
2023-05-10T07:24:24.790Z,1013.32
2023-05-10T07:25:25.610Z,1013.33
2023-05-10T07:26:26.434Z,1013.34
2023-05-10T07:27:27.270Z,1013.36
2023-05-10T07:28:28.120Z,1013.35
2023-05-10T07:29:28.931Z,1013.34
2023-05-10T07:30:29.820Z,1013.32
2023-05-10T07:31:30.639Z,1013.33
2023-05-10T07:32:31.564Z,1013.33
2023-05-10T07:33:32.402Z,1013.30
2023-05-10T07:34:33.234Z,1013.30
2023-05-10T07:35:34.058Z,1013.28
2023-05-10T07:36:34.893Z,1013.29
2023-05-10T07:37:35.718Z,1013.29
2023-05-10T07:38:38.383Z,1013.29
2023-05-10T07:39:37.367Z,1013.32
2023-05-10T07:40:38.193Z,1013.31
2023-05-10T07:41:39.039Z,1013.32
2023-05-10T07:42:39.894Z,1013.33
2023-05-10T07:43:40.690Z,1013.35
2023-05-10T07:44:41.552Z,1013.34
2023-05-10T07:45:42.454Z,1013.35
2023-05-10T07:46:43.271Z,1013.37
2023-05-10T07:47:44.106Z,1013.38
2023-05-10T07:48:44.916Z,1013.38
2023-05-10T07:49:45.742Z,1013.39
2023-05-10T07:50:46.560Z,1013.40
2023-05-10T07:51:47.399Z,1013.44
2023-05-10T07:52:48.223Z,1013.45
2023-05-10T07:53:49.060Z,1013.45
2023-05-10T07:54:49.884Z,1013.45
2023-05-10T07:55:50.722Z,1013.44
2023-05-10T07:56:51.556Z,1013.43
2023-05-10T07:57:52.389Z,1013.45
2023-05-10T07:58:53.224Z,1013.45
2023-05-10T07:59:54.040Z,1013.46
2023-05-10T08:00:54.898Z,1013.44
2023-05-10T08:01:55.724Z,1013.45
2023-05-10T08:02:56.715Z,1013.44
2023-05-10T08:03:57.581Z,1013.43
2023-05-10T08:04:58.420Z,1013.41
2023-05-10T08:05:59.248Z,1013.42
2023-05-10T08:07:00.128Z,1013.43
2023-05-10T08:08:00.913Z,1013.46
2023-05-10T08:09:01.754Z,1013.47
2023-05-10T08:10:02.581Z,1013.48
2023-05-10T08:11:03.434Z,1013.51
2023-05-10T08:12:04.240Z,1013.52
2023-05-10T08:13:05.065Z,1013.51
2023-05-10T08:14:05.898Z,1013.51
2023-05-10T08:15:06.736Z,1013.51
2023-05-10T08:16:07.685Z,1013.49
2023-05-10T08:17:08.479Z,1013.47
2023-05-10T08:18:09.375Z,1013.48
2023-05-10T08:19:10.232Z,1013.50
2023-05-10T08:20:11.017Z,1013.49
2023-05-10T08:21:11.847Z,1013.50
2023-05-10T08:22:12.669Z,1013.50
2023-05-10T08:23:13.511Z,1013.51
2023-05-10T08:24:14.328Z,1013.50
2023-05-10T08:25:15.454Z,1013.52
2023-05-10T08:26:15.900Z,1013.52
2023-05-10T08:27:16.742Z,1013.53
2023-05-10T08:28:17.554Z,1013.55
2023-05-10T08:29:18.391Z,1013.57
2023-05-10T08:30:19.219Z,1013.57
2023-05-10T08:31:20.203Z,1013.59
2023-05-10T08:32:21.020Z,1013.56
2023-05-10T08:33:21.855Z,1013.58
2023-05-10T08:34:22.917Z,1013.58
2023-05-10T08:35:23.364Z,1013.57
2023-05-10T08:36:24.202Z,1013.57
2023-05-10T08:37:25.034Z,1013.57
2023-05-10T08:38:25.870Z,1013.57
2023-05-10T08:39:30.238Z,1013.57
2023-05-10T08:40:27.599Z,1013.57
2023-05-10T08:41:28.421Z,1013.55
2023-05-10T08:42:29.247Z,1013.57
2023-05-10T08:43:30.165Z,1013.57
2023-05-10T08:44:30.973Z,1013.58
2023-05-10T08:45:31.789Z,1013.57
2023-05-10T08:46:32.925Z,1013.59
2023-05-10T08:47:33.329Z,1013.58
2023-05-10T08:48:34.148Z,1013.59
2023-05-10T08:49:35.059Z,1013.60
2023-05-10T08:50:35.845Z,1013.62
2023-05-10T08:51:36.764Z,1013.62
2023-05-10T08:52:37.554Z,1013.63
2023-05-10T08:53:38.365Z,1013.63
2023-05-10T08:54:39.196Z,1013.64
2023-05-10T08:55:40.027Z,1013.62
2023-05-10T08:56:40.883Z,1013.64
2023-05-10T08:57:41.733Z,1013.62
2023-05-10T08:58:42.539Z,1013.63
2023-05-10T08:59:43.364Z,1013.63
2023-05-10T09:00:44.206Z,1013.63
2023-05-10T09:01:45.051Z,1013.65
2023-05-10T09:02:45.878Z,1013.68
2023-05-10T09:03:46.700Z,1013.65
2023-05-10T09:04:47.560Z,1013.67
2023-05-10T09:05:48.443Z,1013.65
2023-05-10T09:06:49.262Z,1013.63
2023-05-10T09:07:50.104Z,1013.63
2023-05-10T09:08:50.915Z,1013.62
2023-05-10T09:09:51.759Z,1013.61
2023-05-10T09:10:52.582Z,1013.59
2023-05-10T09:11:53.418Z,1013.60
2023-05-10T09:12:54.248Z,1013.59
2023-05-10T09:13:55.063Z,1013.60
2023-05-10T09:14:55.897Z,1013.61
2023-05-10T09:15:58.796Z,1013.62
2023-05-10T09:16:58.588Z,1013.63
2023-05-10T09:17:57.953Z,1013.63
2023-05-10T09:18:58.835Z,1013.66
2023-05-10T09:19:59.728Z,1013.65
2023-05-10T09:21:00.549Z,1013.67
2023-05-10T09:22:01.380Z,1013.68
2023-05-10T09:23:02.205Z,1013.68
2023-05-10T09:24:03.044Z,1013.68
2023-05-10T09:25:03.925Z,1013.68
2023-05-10T09:26:04.764Z,1013.69
2023-05-10T09:27:05.576Z,1013.69
2023-05-10T09:28:06.386Z,1013.72
2023-05-10T09:29:07.227Z,1013.73
2023-05-10T09:30:08.071Z,1013.77
2023-05-10T09:31:08.981Z,1013.80
2023-05-10T09:32:09.898Z,1013.80
2023-05-10T09:33:10.700Z,1013.82
2023-05-10T09:34:11.539Z,1013.84
2023-05-10T09:35:12.361Z,1013.84
2023-05-10T09:36:13.195Z,1013.83
2023-05-10T09:37:14.025Z,1013.81
2023-05-10T09:38:14.865Z,1013.82
2023-05-10T09:39:15.729Z,1013.82
2023-05-10T09:40:16.527Z,1013.83
2023-05-10T09:41:17.360Z,1013.84
2023-05-10T09:42:18.172Z,1013.84
2023-05-10T09:43:19.008Z,1013.84
2023-05-10T09:44:19.843Z,1013.84
2023-05-10T09:45:20.700Z,1013.85
2023-05-10T09:46:21.603Z,1013.84
2023-05-10T09:47:22.428Z,1013.83
2023-05-10T09:48:23.226Z,1013.84
2023-05-10T09:49:24.058Z,1013.81
2023-05-10T09:50:24.879Z,1013.82
2023-05-10T09:51:25.759Z,1013.81
2023-05-10T09:52:26.562Z,1013.80
2023-05-10T09:53:27.389Z,1013.80
2023-05-10T09:54:28.216Z,1013.81
2023-05-10T09:55:29.033Z,1013.80
2023-05-10T09:56:29.890Z,1013.79
2023-05-10T09:57:31.865Z,1013.78
2023-05-10T09:58:31.649Z,1013.76
2023-05-10T09:59:32.469Z,1013.77
2023-05-10T10:00:33.284Z,1013.75
2023-05-10T10:01:34.143Z,1013.75
2023-05-10T10:02:35.057Z,1013.74
2023-05-10T10:03:35.847Z,1013.76
2023-05-10T10:04:36.717Z,1013.74
2023-05-10T10:05:37.490Z,1013.73
2023-05-10T10:06:38.336Z,1013.72
2023-05-10T10:07:39.147Z,1013.70
2023-05-10T10:08:39.965Z,1013.72
2023-05-10T10:09:40.821Z,1013.72
2023-05-10T10:10:41.802Z,1013.74
2023-05-10T10:11:42.166Z,1013.74
2023-05-10T10:12:42.997Z,1013.75
2023-05-10T10:13:43.827Z,1013.77
2023-05-10T10:14:44.655Z,1013.78
2023-05-10T10:15:45.627Z,1013.76
2023-05-10T10:17:05.085Z,1013.77
2023-05-10T10:17:48.249Z,1013.77
2023-05-10T10:18:48.074Z,1013.77
2023-05-10T10:19:48.862Z,1013.76
2023-05-10T10:20:49.685Z,1013.76
2023-05-10T10:21:50.541Z,1013.77
2023-05-10T10:22:51.349Z,1013.79
2023-05-10T10:23:52.185Z,1013.80
2023-05-10T10:24:53.031Z,1013.79
2023-05-10T10:25:53.864Z,1013.81
2023-05-10T10:26:54.688Z,1013.78
2023-05-10T10:27:55.528Z,1013.78
2023-05-10T10:28:56.361Z,1013.78
2023-05-10T10:29:57.199Z,1013.80
2023-05-10T10:30:58.010Z,1013.80
2023-05-10T10:31:58.880Z,1013.81
2023-05-10T10:32:59.762Z,1013.81
2023-05-10T10:34:00.599Z,1013.81
2023-05-10T10:35:01.456Z,1013.82
2023-05-10T10:36:02.251Z,1013.80
2023-05-10T10:37:03.096Z,1013.82
2023-05-10T10:38:03.911Z,1013.80
2023-05-10T10:39:04.794Z,1013.80
2023-05-10T10:40:05.583Z,1013.81
2023-05-10T10:41:06.419Z,1013.78
2023-05-10T10:42:07.268Z,1013.80
2023-05-10T10:43:08.082Z,1013.79
2023-05-10T10:44:08.916Z,1013.80
2023-05-10T10:45:09.794Z,1013.82
2023-05-10T10:46:10.584Z,1013.81
2023-05-10T10:47:11.446Z,1013.83
2023-05-10T10:48:12.720Z,1013.82
2023-05-10T10:49:12.985Z,1013.83
2023-05-10T10:50:13.911Z,1013.82
2023-05-10T10:51:14.741Z,1013.80
2023-05-10T10:52:15.569Z,1013.81
2023-05-10T10:53:16.473Z,1013.79
2023-05-10T10:54:17.269Z,1013.79
2023-05-10T10:55:18.379Z,1013.79
2023-05-10T10:56:18.944Z,1013.80
2023-05-10T10:57:19.782Z,1013.79
2023-05-10T10:58:20.662Z,1013.79
2023-05-10T10:59:21.551Z,1013.79
2023-05-10T11:00:22.333Z,1013.79
2023-05-10T11:01:23.198Z,1013.77
2023-05-10T11:02:24.049Z,1013.78
2023-05-10T11:03:24.849Z,1013.78
2023-05-10T11:04:25.723Z,1013.79
2023-05-10T11:05:26.571Z,1013.80
2023-05-10T11:06:27.384Z,1013.77
2023-05-10T11:07:28.231Z,1013.78
2023-05-10T11:08:29.061Z,1013.78
2023-05-10T11:09:29.888Z,1013.77
2023-05-10T11:10:30.719Z,1013.78
2023-05-10T11:11:31.574Z,1013.80
2023-05-10T11:12:32.385Z,1013.79
2023-05-10T11:13:33.202Z,1013.78
2023-05-10T11:14:34.048Z,1013.79
2023-05-10T11:15:34.858Z,1013.78
2023-05-10T11:16:35.733Z,1013.77
2023-05-10T11:17:36.572Z,1013.77
2023-05-10T11:18:37.445Z,1013.78
2023-05-10T11:19:38.221Z,1013.77
2023-05-10T11:20:39.054Z,1013.78
2023-05-10T11:21:39.896Z,1013.77
2023-05-10T11:22:40.724Z,1013.77
2023-05-10T11:23:41.557Z,1013.78
2023-05-10T11:24:42.382Z,1013.78
2023-05-10T11:25:43.233Z,1013.78
2023-05-10T11:26:44.052Z,1013.78
2023-05-10T11:27:44.879Z,1013.80
2023-05-10T11:28:45.719Z,1013.81
2023-05-10T11:29:46.560Z,1013.81
2023-05-10T11:30:47.442Z,1013.82
2023-05-10T11:31:48.234Z,1013.81
2023-05-10T11:32:49.108Z,1013.83
2023-05-10T11:33:49.938Z,1013.83
2023-05-10T11:34:50.741Z,1013.82
2023-05-10T11:35:51.573Z,1013.84
2023-05-10T11:36:52.412Z,1013.82
2023-05-10T11:37:53.219Z,1013.81
2023-05-10T11:38:54.070Z,1013.81
2023-05-10T11:39:54.955Z,1013.80
2023-05-10T11:40:55.782Z,1013.83
2023-05-10T11:41:56.605Z,1013.83
2023-05-10T11:42:57.434Z,1013.83
2023-05-10T11:43:58.293Z,1013.83
2023-05-10T11:44:59.095Z,1013.84
2023-05-10T11:45:59.965Z,1013.85
2023-05-10T11:47:00.767Z,1013.87
2023-05-10T11:48:01.625Z,1013.87
2023-05-10T11:49:02.498Z,1013.89
2023-05-10T11:50:03.324Z,1013.89
2023-05-10T11:51:04.146Z,1013.89
2023-05-10T11:52:04.994Z,1013.91
2023-05-10T11:53:05.822Z,1013.90
2023-05-10T11:54:06.666Z,1013.89
2023-05-10T11:55:07.490Z,1013.89
2023-05-10T11:56:08.325Z,1013.89
2023-05-10T11:57:09.160Z,1013.91
2023-05-10T11:58:09.988Z,1013.91
2023-05-10T11:59:10.819Z,1013.92
2023-05-10T12:00:11.637Z,1013.92
2023-05-10T12:01:12.460Z,1013.90
2023-05-10T12:02:13.333Z,1013.90
2023-05-10T12:03:14.216Z,1013.90
2023-05-10T12:04:15.300Z,1013.90
2023-05-10T12:05:15.667Z,1013.90
2023-05-10T12:06:16.506Z,1013.91
2023-05-10T12:07:17.331Z,1013.93
2023-05-10T12:08:18.159Z,1013.93
2023-05-10T12:09:22.976Z,1013.94
2023-05-10T12:10:20.978Z,1013.92
2023-05-10T12:11:20.393Z,1013.95
2023-05-10T12:12:21.223Z,1013.95
2023-05-10T12:13:22.129Z,1013.97
2023-05-10T12:14:22.945Z,1013.97
2023-05-10T12:15:23.781Z,1013.97